Time;durP1;ratioP1;P1;durP2;ratioP2;P2;SDS_P1;SDS_P2;PMS_P1;PMS_P2;Temp;Humidity;BMP_temperature;BMP_pressure;BME280_temperature;BME280_humidity;BME280_pressure;Samples;Min_cycle;Max_cycle;Signal;HPM_P1;HPM_P2
2024/01/29 00:01:14;;;;;;;6.40;4.70;;;1.50;73.50;;;;;;5050254;28;20453;-53
2024/01/29 00:03:40;;;;;;;10.10;5.63;;;1.50;72.50;;;;;;5045275;28;20454;-52
2024/01/29 00:06:07;;;;;;;9.47;5.47;;;1.50;71.70;;;;;;5044750;28;20458;-53
2024/01/29 00:08:33;;;;;;;12.77;6.20;;;1.50;74.50;;;;;;5048502;28;20527;-53
2024/01/29 00:11:01;;;;;;;7.37;5.60;;;1.60;76.10;;;;;;5051059;28;20442;-51
2024/01/29 00:13:28;;;;;;;8.27;5.73;;;1.60;77.10;;;;;;5051203;28;20486;-53
2024/01/29 00:15:54;;;;;;;11.87;6.77;;;1.60;79.40;;;;;;5053868;28;20513;-52
2024/01/29 00:18:21;;;;;;;8.27;5.20;;;1.60;79.70;;;;;;5050937;28;20535;-53
2024/01/29 00:20:47;;;;;;;13.07;6.50;;;1.60;79.90;;;;;;5048426;28;20520;-51
2024/01/29 00:23:15;;;;;;;12.27;6.03;;;1.50;78.50;;;;;;5051069;28;20524;-53
2024/01/29 00:25:41;;;;;;;7.47;5.77;;;1.60;78.40;;;;;;5051969;28;20452;-52
2024/01/29 00:28:09;;;;;;;9.20;5.43;;;1.50;80.60;;;;;;5055514;28;20480;-53
2024/01/29 00:30:36;;;;;;;8.10;5.50;;;1.50;83.80;;;;;;5055843;28;20944;-53
2024/01/29 00:33:02;;;;;;;8.10;5.73;;;1.50;80.80;;;;;;5053235;28;20509;-52
2024/01/29 00:35:29;;;;;;;10.93;5.40;;;1.40;79.30;;;;;;5054795;28;20496;-52
2024/01/29 00:37:55;;;;;;;9.03;5.83;;;1.40;76.20;;;;;;5051106;28;20481;-52
2024/01/29 00:40:24;;;;;;;11.90;5.73;;;1.40;78.20;;;;;;5054701;28;20487;-52
2024/01/29 00:42:51;;;;;;;16.37;6.23;;;1.40;78.60;;;;;;5051655;28;20905;-52
2024/01/29 00:45:19;;;;;;;9.93;6.47;;;1.30;79.20;;;;;;5054648;28;20481;-52
2024/01/29 00:47:45;;;;;;;9.13;5.87;;;1.50;83.70;;;;;;5061102;28;20872;-52
2024/01/29 00:50:12;;;;;;;9.47;5.80;;;1.40;83.50;;;;;;5053386;28;20940;-52
2024/01/29 00:52:39;;;;;;;8.37;5.73;;;1.50;85.90;;;;;;5057184;28;20607;-53
2024/01/29 00:55:06;;;;;;;10.27;5.63;;;1.50;88.20;;;;;;5050157;28;20486;-53
2024/01/29 00:57:33;;;;;;;10.20;6.13;;;1.60;91.90;;;;;;5060879;28;20936;-52
2024/01/29 00:59:59;;;;;;;8.90;5.37;;;1.60;94.80;;;;;;5054770;28;20781;-53
2024/01/29 01:02:27;;;;;;;11.47;6.43;;;1.50;95.40;;;;;;5063156;28;20430;-53
2024/01/29 01:04:54;;;;;;;7.70;5.50;;;1.40;92.70;;;;;;5048771;28;20464;-53
2024/01/29 01:07:20;;;;;;;10.20;6.10;;;1.30;88.80;;;;;;5049863;28;20446;-53
2024/01/29 01:09:47;;;;;;;7.87;4.90;;;1.40;83.60;;;;;;5054215;28;20481;-52
2024/01/29 01:12:13;;;;;;;11.00;6.07;;;1.30;86.10;;;;;;5049751;28;20568;-53
2024/01/29 01:14:40;;;;;;;10.63;5.23;;;1.30;84.40;;;;;;5054323;28;20442;-53
2024/01/29 01:17:07;;;;;;;9.10;5.53;;;1.30;84.90;;;;;;5055160;28;20500;-52
2024/01/29 01:19:35;;;;;;;11.80;6.03;;;1.30;85.90;;;;;;5050591;28;21033;-52
2024/01/29 01:22:01;;;;;;;11.20;5.73;;;1.30;88.30;;;;;;5052847;28;20438;-52
2024/01/29 01:24:28;;;;;;;9.70;5.53;;;1.40;90.70;;;;;;5054148;28;21017;-53
2024/01/29 01:26:55;;;;;;;10.70;6.03;;;1.40;92.00;;;;;;5048137;28;20965;-53
2024/01/29 01:29:21;;;;;;;7.53;5.13;;;1.40;93.10;;;;;;5054984;28;20469;-53
2024/01/29 01:31:48;;;;;;;8.97;5.30;;;1.30;92.80;;;;;;5048949;28;20450;-52
2024/01/29 01:34:14;;;;;;;14.03;6.37;;;1.30;95.20;;;;;;5053070;28;20543;-52
2024/01/29 01:36:42;;;;;;;10.30;5.40;;;1.40;96.00;;;;;;5061678;28;20497;-53
2024/01/29 01:39:09;;;;;;;6.70;4.93;;;1.40;97.50;;;;;;5048136;28;20539;-53
2024/01/29 01:41:36;;;;;;;12.10;5.77;;;1.40;97.50;;;;;;5050377;28;20798;-52
2024/01/29 01:44:02;;;;;;;6.97;5.20;;;1.40;97.90;;;;;;5046517;28;20493;-53
2024/01/29 01:46:29;;;;;;;10.80;5.60;;;1.40;98.80;;;;;;5046791;28;20470;-53
2024/01/29 01:48:56;;;;;;;11.97;5.50;;;1.40;99.90;;;;;;5052688;28;20962;-53
2024/01/29 01:51:24;;;;;;;8.03;4.73;;;1.30;99.00;;;;;;5050739;28;20457;-53
2024/01/29 01:53:54;;;;;;;6.50;4.70;;;1.40;99.90;;;;;;5051517;28;20536;-52
2024/01/29 01:56:21;;;;;;;7.67;5.03;;;1.40;99.90;;;;;;5053793;28;20446;-52
2024/01/29 01:58:48;;;;;;;7.10;5.00;;;1.40;99.90;;;;;;5051923;28;20567;-53
2024/01/29 02:01:15;;;;;;;15.93;5.70;;;1.40;99.90;;;;;;5056156;28;20481;-53
2024/01/29 02:03:42;;;;;;;15.70;5.50;;;1.40;99.90;;;;;;5051100;28;20511;-53
2024/01/29 02:06:10;;;;;;;10.30;5.47;;;1.50;99.90;;;;;;5053206;28;20503;-53
2024/01/29 02:08:36;;;;;;;11.07;5.60;;;1.50;99.90;;;;;;5052936;28;20466;-53
2024/01/29 02:11:04;;;;;;;8.60;6.00;;;1.50;99.90;;;;;;5053166;28;20508;-53
2024/01/29 02:13:31;;;;;;;8.83;5.57;;;1.60;99.90;;;;;;5052379;28;20492;-53
2024/01/29 02:15:57;;;;;;;11.93;5.23;;;1.60;99.90;;;;;;5043459;28;21294;-53
2024/01/29 02:18:24;;;;;;;11.20;5.93;;;1.60;99.90;;;;;;5052116;28;20882;-53
2024/01/29 02:20:51;;;;;;;8.73;5.23;;;1.70;99.90;;;;;;5055124;28;20521;-54
2024/01/29 02:23:19;;;;;;;9.60;5.57;;;1.70;99.90;;;;;;5053811;28;20457;-53
2024/01/29 02:25:45;;;;;;;7.33;5.20;;;1.70;99.90;;;;;;5049567;28;20458;-52
2024/01/29 02:28:12;;;;;;;10.40;5.90;;;1.60;99.90;;;;;;5053927;28;20462;-52
2024/01/29 02:30:38;;;;;;;10.90;5.73;;;1.60;99.90;;;;;;5050289;28;20442;-53
2024/01/29 02:33:05;;;;;;;8.47;5.20;;;1.60;99.90;;;;;;5051085;28;20517;-53
2024/01/29 02:35:32;;;;;;;8.53;5.17;;;1.70;99.90;;;;;;5050705;28;20547;-52
2024/01/29 02:37:58;;;;;;;10.70;5.50;;;1.60;99.90;;;;;;5049257;28;20532;-51
2024/01/29 02:40:26;;;;;;;12.67;6.33;;;1.70;99.90;;;;;;5052759;28;20441;-53
2024/01/29 02:42:53;;;;;;;12.70;5.77;;;1.70;99.90;;;;;;5050372;28;20458;-52
2024/01/29 02:45:20;;;;;;;11.33;6.20;;;1.70;99.90;;;;;;5052817;28;20446;-54
2024/01/29 02:47:46;;;;;;;10.90;6.70;;;1.70;99.90;;;;;;5050212;28;20864;-53
2024/01/29 02:50:13;;;;;;;9.63;5.60;;;1.70;99.90;;;;;;5053433;28;20474;-52
2024/01/29 02:52:39;;;;;;;12.57;6.30;;;1.70;99.90;;;;;;5048997;28;20834;-52
2024/01/29 02:55:06;;;;;;;9.17;5.30;;;1.70;99.90;;;;;;5047730;28;20523;-52
2024/01/29 02:57:35;;;;;;;7.93;5.57;;;1.70;99.90;;;;;;5047190;28;20543;-52
2024/01/29 03:00:01;;;;;;;11.40;6.30;;;1.60;99.90;;;;;;5048086;28;20517;-52
2024/01/29 03:02:28;;;;;;;8.17;5.90;;;1.60;99.90;;;;;;5050109;28;20475;-52
2024/01/29 03:04:54;;;;;;;9.63;5.27;;;1.50;99.90;;;;;;5044672;28;20959;-53
2024/01/29 03:07:21;;;;;;;10.07;5.93;;;1.50;99.90;;;;;;5047139;28;20512;-52
2024/01/29 03:09:47;;;;;;;10.10;5.87;;;1.50;99.90;;;;;;5048726;28;20489;-52
2024/01/29 03:12:14;;;;;;;7.13;4.93;;;1.40;99.90;;;;;;5050918;28;20519;-53
2024/01/29 03:14:42;;;;;;;9.43;5.90;;;1.40;99.90;;;;;;5048424;28;20971;-53
2024/01/29 03:17:09;;;;;;;7.20;5.33;;;1.40;99.90;;;;;;5044838;28;20533;-52
2024/01/29 03:19:35;;;;;;;13.50;6.20;;;1.40;99.90;;;;;;5045912;28;20543;-53
2024/01/29 03:22:02;;;;;;;9.70;5.30;;;1.30;99.90;;;;;;5050869;28;20474;-53
2024/01/29 03:24:29;;;;;;;10.27;5.53;;;1.30;99.90;;;;;;5050877;28;20462;-53
2024/01/29 03:26:55;;;;;;;9.60;6.00;;;1.30;99.90;;;;;;5050321;28;21043;-53
2024/01/29 03:29:22;;;;;;;12.23;6.10;;;1.30;99.90;;;;;;5051662;28;20482;-50
2024/01/29 03:31:50;;;;;;;11.23;5.93;;;1.30;99.90;;;;;;5049829;28;20457;-53
2024/01/29 03:34:17;;;;;;;12.97;6.30;;;1.30;99.90;;;;;;5046987;28;20474;-53
2024/01/29 03:36:44;;;;;;;14.30;6.10;;;1.20;99.90;;;;;;5044804;28;20963;-53
2024/01/29 03:39:10;;;;;;;10.70;5.33;;;1.20;99.90;;;;;;5044358;28;20484;-53
2024/01/29 03:41:37;;;;;;;10.13;6.03;;;1.20;99.90;;;;;;5049739;28;20461;-52
2024/01/29 03:44:04;;;;;;;10.03;5.50;;;1.20;99.90;;;;;;5051093;28;20441;-51
2024/01/29 03:46:31;;;;;;;12.73;6.10;;;1.10;99.10;;;;;;5051516;28;20755;-53
2024/01/29 03:48:58;;;;;;;12.13;6.53;;;1.20;97.90;;;;;;5059718;28;20477;-52
2024/01/29 03:51:25;;;;;;;9.17;5.43;;;1.20;98.60;;;;;;5050928;28;20866;-52
2024/01/29 03:53:52;;;;;;;8.90;6.37;;;1.20;98.90;;;;;;5051092;28;20481;-52
2024/01/29 03:56:18;;;;;;;13.67;6.50;;;1.20;98.90;;;;;;5051125;28;20438;-53
2024/01/29 03:58:45;;;;;;;15.83;5.93;;;1.10;98.70;;;;;;5051502;28;20880;-51
2024/01/29 04:01:11;;;;;;;14.07;5.67;;;1.20;99.00;;;;;;5050331;28;20446;-51
2024/01/29 04:03:39;;;;;;;8.47;5.60;;;1.10;98.40;;;;;;5049340;28;20442;-51
2024/01/29 04:06:07;;;;;;;12.30;6.57;;;1.10;95.90;;;;;;5051339;28;20438;-52
2024/01/29 04:08:34;;;;;;;9.87;6.10;;;1.10;95.30;;;;;;5050424;28;20522;-52
2024/01/29 04:11:01;;;;;;;10.50;6.17;;;1.10;94.40;;;;;;5044211;28;20458;-52
2024/01/29 04:13:27;;;;;;;13.53;6.17;;;1.10;91.00;;;;;;5050520;28;20481;-52
2024/01/29 04:15:54;;;;;;;11.30;6.07;;;1.00;91.30;;;;;;5051228;28;20499;-52
2024/01/29 04:18:20;;;;;;;9.70;6.37;;;1.00;87.90;;;;;;5053476;28;20467;-53
2024/01/29 04:20:48;;;;;;;11.97;6.33;;;0.90;89.10;;;;;;5049583;28;20488;-52
2024/01/29 04:23:16;;;;;;;8.20;6.40;;;1.00;87.00;;;;;;5049233;28;20460;-52
2024/01/29 04:25:43;;;;;;;10.60;6.43;;;1.00;86.40;;;;;;5047945;28;20872;-52
2024/01/29 04:28:09;;;;;;;10.27;6.77;;;1.00;88.00;;;;;;5042678;28;20971;-52
2024/01/29 04:30:36;;;;;;;13.60;6.70;;;1.00;85.20;;;;;;5049560;28;20454;-53
2024/01/29 04:33:03;;;;;;;15.80;6.80;;;0.90;86.20;;;;;;5054169;28;20469;-52
2024/01/29 04:35:30;;;;;;;9.63;5.63;;;0.90;80.90;;;;;;5051048;28;20476;-52
2024/01/29 04:37:56;;;;;;;12.53;7.30;;;0.90;79.90;;;;;;5058905;28;20466;-52
2024/01/29 04:40:24;;;;;;;10.00;6.60;;;0.90;77.90;;;;;;5049254;28;20454;-53
2024/01/29 04:42:52;;;;;;;12.57;6.90;;;0.90;75.90;;;;;;5049263;28;20470;-54
2024/01/29 04:45:18;;;;;;;9.13;5.40;;;0.80;76.70;;;;;;5040558;28;20515;-53
2024/01/29 04:47:45;;;;;;;14.17;6.67;;;0.80;73.90;;;;;;5050430;28;20916;-53
2024/01/29 04:50:12;;;;;;;9.93;6.93;;;0.80;74.00;;;;;;5050612;28;20569;-52
2024/01/29 04:52:38;;;;;;;10.53;5.93;;;0.80;71.50;;;;;;5051440;28;20841;-53
2024/01/29 04:55:06;;;;;;;11.03;6.57;;;0.70;70.10;;;;;;5051040;28;20527;-53
2024/01/29 04:57:34;;;;;;;13.43;7.63;;;0.70;66.70;;;;;;5052215;28;20446;-53
2024/01/29 05:00:01;;;;;;;10.33;6.70;;;0.60;60.80;;;;;;5049272;28;20481;-52
2024/01/29 05:02:27;;;;;;;11.77;7.20;;;0.60;54.90;;;;;;5048252;28;20618;-53
2024/01/29 05:04:55;;;;;;;7.47;5.83;;;0.60;53.40;;;;;;5053596;28;20446;-51
2024/01/29 05:07:21;;;;;;;11.27;6.70;;;0.60;53.10;;;;;;5052267;28;20445;-52
2024/01/29 05:09:48;;;;;;;14.50;7.30;;;0.60;54.10;;;;;;5050349;28;20465;-52
2024/01/29 05:12:14;;;;;;;8.93;6.23;;;0.50;54.00;;;;;;5052337;28;20515;-53
2024/01/29 05:14:42;;;;;;;12.27;6.93;;;0.50;49.70;;;;;;5054867;28;20481;-53
2024/01/29 05:17:10;;;;;;;17.50;8.23;;;0.50;42.10;;;;;;5059461;28;20535;-53
2024/01/29 05:19:38;;;;;;;10.40;7.23;;;0.50;42.20;;;;;;5050546;28;20569;-52
2024/01/29 05:22:05;;;;;;;19.30;7.80;;;0.40;42.10;;;;;;5050424;28;20444;-52
2024/01/29 05:24:31;;;;;;;17.20;7.37;;;0.40;39.80;;;;;;5049650;28;20507;-53
2024/01/29 05:26:58;;;;;;;12.43;7.20;;;0.40;35.10;;;;;;5052466;28;20442;-53
2024/01/29 05:29:24;;;;;;;13.50;7.40;;;0.40;34.10;;;;;;5054139;28;20473;-53
2024/01/29 05:31:52;;;;;;;11.00;6.80;;;0.30;35.60;;;;;;5048704;28;20458;-52
2024/01/29 05:34:19;;;;;;;17.50;7.03;;;0.40;30.70;;;;;;5054148;28;20473;-52
2024/01/29 05:36:45;;;;;;;12.47;6.87;;;0.30;29.00;;;;;;5057448;28;20446;-53
2024/01/29 05:39:12;;;;;;;12.10;6.57;;;0.30;27.40;;;;;;5053659;28;20833;-52
2024/01/29 05:41:38;;;;;;;23.77;7.93;;;0.30;26.40;;;;;;5053908;28;20798;-53
2024/01/29 05:44:05;;;;;;;16.67;7.23;;;0.30;24.20;;;;;;5052659;28;20531;-53
2024/01/29 05:46:32;;;;;;;12.50;7.30;;;0.30;20.20;;;;;;5051019;28;20523;-53
2024/01/29 05:49:00;;;;;;;9.80;6.70;;;0.30;24.50;;;;;;5039453;28;20978;-52
2024/01/29 05:51:26;;;;;;;8.30;6.10;;;0.30;23.60;;;;;;5047455;28;20940;-53
2024/01/29 05:53:53;;;;;;;14.00;7.53;;;0.30;22.20;;;;;;5051444;28;20481;-53
2024/01/29 05:56:19;;;;;;;10.37;6.67;;;0.30;72.20;;;;;;5051900;28;20458;-52
2024/01/29 05:58:46;;;;;;;18.27;8.43;;;0.20;22.10;;;;;;5050328;28;20485;-52
2024/01/29 06:01:13;;;;;;;8.90;6.33;;;0.20;78.90;;;;;;5043441;28;20644;-58
2024/01/29 06:03:39;;;;;;;10.70;6.30;;;0.20;99.90;;;;;;5048572;28;20951;-57
2024/01/29 06:06:07;;;;;;;13.40;6.80;;;0.20;99.90;;;;;;5053208;28;20457;-58
2024/01/29 06:08:34;;;;;;;14.40;6.97;;;0.10;99.90;;;;;;5044134;28;20976;-57
2024/01/29 06:11:00;;;;;;;10.90;6.43;;;0.20;99.90;;;;;;5042154;28;20546;-58
2024/01/29 06:13:27;;;;;;;11.63;7.20;;;0.20;99.90;;;;;;5047296;28;20478;-58
2024/01/29 06:15:54;;;;;;;17.30;7.40;;;0.20;99.90;;;;;;5049745;28;20470;-57
2024/01/29 06:18:21;;;;;;;11.10;7.03;;;0.20;99.90;;;;;;5049310;28;20516;-57
2024/01/29 06:20:49;;;;;;;10.83;7.07;;;0.30;99.90;;;;;;5055117;28;20519;-57
2024/01/29 06:23:17;;;;;;;15.27;8.30;;;0.30;99.90;;;;;;5047182;28;20464;-59
2024/01/29 06:25:44;;;;;;;15.80;7.60;;;0.40;99.90;;;;;;5047844;28;20450;-58
2024/01/29 06:28:10;;;;;;;12.37;7.50;;;0.30;99.90;;;;;;5047150;28;20478;-53
2024/01/29 06:30:37;;;;;;;14.10;7.80;;;0.30;99.90;;;;;;5048108;28;20466;-53
2024/01/29 06:33:04;;;;;;;15.00;7.43;;;0.30;99.90;;;;;;5050927;28;20461;-54
2024/01/29 06:35:30;;;;;;;17.03;7.20;;;0.30;99.90;;;;;;5051970;28;20479;-53
2024/01/29 06:37:57;;;;;;;10.50;7.20;;;0.40;99.90;;;;;;5062718;28;20518;-54
2024/01/29 06:40:27;;;;;;;12.43;7.13;;;0.40;83.70;;;;;;5056800;28;20900;-53
2024/01/29 06:42:54;;;;;;;13.27;6.83;;;0.50;77.10;;;;;;5066245;28;20473;-53
2024/01/29 06:45:20;;;;;;;13.40;6.80;;;0.50;22.70;;;;;;5056045;28;20865;-53
2024/01/29 06:47:47;;;;;;;10.67;6.37;;;0.50;25.40;;;;;;5055727;28;20868;-53
2024/01/29 06:50:14;;;;;;;13.80;6.67;;;0.60;29.50;;;;;;5056779;28;20580;-56
2024/01/29 06:52:40;;;;;;;8.73;6.83;;;0.60;31.20;;;;;;5063572;28;20434;-54
2024/01/29 06:55:07;;;;;;;15.43;7.00;;;0.50;33.40;;;;;;5060828;28;20564;-54
2024/01/29 06:57:35;;;;;;;16.40;9.77;;;0.50;29.70;;;;;;5052740;28;20943;-54
2024/01/29 07:00:03;;;;;;;22.80;15.30;;;0.60;32.20;;;;;;5061831;28;20944;-53
2024/01/29 07:02:30;;;;;;;70.97;33.93;;;0.60;31.40;;;;;;5068007;28;20449;-54
2024/01/29 07:04:56;;;;;;;14.03;10.33;;;0.60;38.30;;;;;;5058309;28;20870;-53
2024/01/29 07:07:23;;;;;;;45.23;37.80;;;0.60;37.60;;;;;;5052893;28;20504;-54
2024/01/29 07:09:52;;;;;;;70.10;59.40;;;0.70;37.20;;;;;;5053134;28;20765;-53
2024/01/29 07:12:18;;;;;;;27.53;21.70;;;0.60;38.80;;;;;;5052712;28;20446;-53
2024/01/29 07:14:46;;;;;;;21.83;13.57;;;0.70;39.50;;;;;;5057678;28;20539;-53
2024/01/29 07:17:13;;;;;;;14.77;8.10;;;0.70;42.10;;;;;;5060046;28;20507;-52
2024/01/29 07:19:40;;;;;;;12.13;8.10;;;0.70;42.30;;;;;;5058784;28;20908;-54
2024/01/29 07:22:08;;;;;;;17.50;12.93;;;0.80;42.50;;;;;;5057240;28;20495;-54
2024/01/29 07:24:35;;;;;;;20.00;11.67;;;0.80;43.40;;;;;;5056286;28;20442;-53
2024/01/29 07:27:02;;;;;;;17.33;11.43;;;0.80;44.20;;;;;;5052239;28;20446;-54
2024/01/29 07:29:29;;;;;;;16.60;9.10;;;0.80;46.70;;;;;;5057993;28;20493;-54
2024/01/29 07:31:58;;;;;;;13.07;7.80;;;0.80;47.80;;;;;;5053713;28;20839;-54
2024/01/29 07:34:25;;;;;;;18.13;8.13;;;0.80;48.10;;;;;;5059081;28;20488;-54
2024/01/29 07:36:51;;;;;;;18.13;8.60;;;0.80;47.50;;;;;;5055178;28;20442;-54
2024/01/29 07:39:18;;;;;;;13.00;8.07;;;0.90;54.70;;;;;;5054882;28;20460;-54
2024/01/29 07:41:44;;;;;;;11.23;6.97;;;1.00;58.00;;;;;;5052171;28;20445;-53
2024/01/29 07:44:11;;;;;;;13.77;7.30;;;1.10;61.00;;;;;;5060017;28;20932;-53
2024/01/29 07:46:37;;;;;;;12.77;7.43;;;1.20;68.40;;;;;;5051706;28;21025;-54
2024/01/29 07:49:06;;;;;;;9.93;7.60;;;1.40;76.50;;;;;;5053276;28;20469;-58
2024/01/29 07:51:33;;;;;;;10.37;6.40;;;1.60;80.40;;;;;;5052721;28;20485;-55
2024/01/29 07:54:00;;;;;;;13.80;7.83;;;1.90;99.20;;;;;;5050853;28;20501;-55
2024/01/29 07:56:26;;;;;;;16.00;6.83;;;2.30;99.90;;;;;;5056855;28;20524;-53
2024/01/29 07:58:53;;;;;;;14.03;7.40;;;2.60;99.90;;;;;;5055742;28;20507;-54
2024/01/29 08:01:19;;;;;;;14.10;7.27;;;2.70;99.90;;;;;;5059060;28;20449;-59
2024/01/29 08:03:46;;;;;;;13.03;7.53;;;2.80;99.90;;;;;;5067989;28;20476;-54
2024/01/29 08:06:14;;;;;;;17.90;7.77;;;2.90;99.90;;;;;;5068398;28;20445;-55
2024/01/29 08:08:41;;;;;;;10.17;7.47;;;3.10;99.90;;;;;;5070302;28;20458;-54
2024/01/29 08:11:08;;;;;;;10.07;5.90;;;3.50;99.90;;;;;;5065171;28;20439;-54
2024/01/29 08:13:35;;;;;;;9.97;6.67;;;3.80;99.90;;;;;;5069268;28;20456;-55
2024/01/29 08:16:02;;;;;;;9.57;6.50;;;4.20;99.90;;;;;;5063668;28;20485;-55
2024/01/29 08:18:28;;;;;;;16.83;6.83;;;4.00;99.90;;;;;;5085498;28;20453;-59
2024/01/29 08:20:55;;;;;;;11.60;7.20;;;4.10;99.90;;;;;;5093794;28;20468;-59
2024/01/29 08:23:24;;;;;;;12.23;6.50;;;4.20;99.90;;;;;;5092379;28;20446;-55
2024/01/29 08:25:50;;;;;;;11.20;6.43;;;4.60;99.90;;;;;;5071320;28;20499;-54
2024/01/29 08:28:17;;;;;;;11.60;7.30;;;4.00;99.90;;;;;;5075004;28;20499;-54
2024/01/29 08:30:44;;;;;;;10.67;6.53;;;4.40;99.90;;;;;;5050437;28;20491;-55
2024/01/29 08:33:10;;;;;;;9.00;6.40;;;4.50;99.90;;;;;;5055467;28;20445;-54
2024/01/29 08:35:37;;;;;;;10.03;6.80;;;4.50;99.90;;;;;;5058720;28;20478;-55
2024/01/29 08:38:03;;;;;;;12.73;6.57;;;4.90;99.90;;;;;;5062501;28;20450;-53
2024/01/29 08:40:32;;;;;;;9.97;5.90;;;5.10;99.90;;;;;;5055704;28;20449;-52
2024/01/29 08:42:58;;;;;;;10.03;5.90;;;5.60;99.90;;;;;;5054194;28;20497;-55
2024/01/29 08:45:25;;;;;;;7.13;5.30;;;6.30;99.90;;;;;;5046381;28;20449;-55
2024/01/29 08:47:51;;;;;;;10.20;6.00;;;6.40;99.90;;;;;;5058299;28;20441;-54
2024/01/29 08:50:18;;;;;;;14.87;7.13;;;6.20;99.90;;;;;;5061573;28;20491;-52
2024/01/29 08:52:45;;;;;;;10.67;5.00;;;6.10;99.90;;;;;;5062474;28;20496;-53
2024/01/29 08:55:11;;;;;;;8.17;5.43;;;6.30;99.90;;;;;;5064158;28;20482;-53
2024/01/29 08:57:39;;;;;;;8.60;5.13;;;6.10;99.90;;;;;;5062410;28;20953;-54
2024/01/29 09:00:07;;;;;;;7.20;5.07;;;6.30;99.90;;;;;;5059424;28;20538;-53
2024/01/29 09:02:34;;;;;;;7.87;5.10;;;6.80;99.90;;;;;;5061842;28;20453;-54
2024/01/29 09:05:00;;;;;;;8.07;5.53;;;7.70;99.90;;;;;;5057876;28;20530;-54
2024/01/29 09:07:27;;;;;;;8.13;5.23;;;7.70;99.90;;;;;;5057565;28;20452;-53
2024/01/29 09:09:54;;;;;;;5.30;4.80;;;8.00;99.90;;;;;;5054622;28;20547;-53
2024/01/29 09:12:20;;;;;;;7.67;5.00;;;8.20;99.90;;;;;;5054597;28;20441;-53
2024/01/29 09:14:48;;;;;;;7.07;4.93;;;8.10;99.90;;;;;;5053258;28;20493;-54
2024/01/29 09:17:15;;;;;;;8.23;5.03;;;7.90;99.90;;;;;;5063472;28;20810;-53
2024/01/29 09:19:45;;;;;;;8.70;4.70;;;7.90;99.90;;;;;;5062792;28;20460;-54
2024/01/29 09:22:11;;;;;;;8.90;4.50;;;7.70;99.90;;;;;;5054193;28;20442;-54
2024/01/29 09:24:38;;;;;;;8.63;4.40;;;7.30;99.90;;;;;;5054141;28;20465;-53
2024/01/29 09:27:05;;;;;;;11.80;5.47;;;7.10;99.90;;;;;;5062822;28;20442;-54
2024/01/29 09:29:31;;;;;;;7.17;5.10;;;7.30;99.90;;;;;;5054267;28;20470;-55
2024/01/29 09:31:59;;;;;;;8.93;5.80;;;7.50;99.90;;;;;;5060296;28;20511;-53
2024/01/29 09:34:27;;;;;;;7.00;5.47;;;7.30;99.90;;;;;;5055454;28;20492;-53
2024/01/29 09:36:54;;;;;;;10.37;4.17;;;7.00;99.90;;;;;;5055429;28;20516;-53
2024/01/29 09:39:23;;;;;;;8.47;5.13;;;6.90;99.90;;;;;;5059840;28;20516;-54
2024/01/29 09:41:52;;;;;;;8.43;4.37;;;6.80;99.90;;;;;;5054280;28;20450;-53
2024/01/29 09:44:18;;;;;;;8.70;5.07;;;7.10;99.90;;;;;;5053697;28;20452;-54
2024/01/29 09:46:47;;;;;;;9.30;6.10;;;7.00;99.90;;;;;;5053798;28;20496;-54
2024/01/29 09:49:16;;;;;;;10.40;5.50;;;7.00;99.90;;;;;;5054435;28;20465;-54
2024/01/29 09:51:47;;;;;;;10.70;4.63;;;7.20;99.90;;;;;;5053556;28;20442;-55
2024/01/29 09:54:13;;;;;;;7.43;5.37;;;7.70;99.90;;;;;;5053920;28;20442;-54
2024/01/29 09:56:40;;;;;;;8.90;5.60;;;8.20;99.90;;;;;;5053768;28;20890;-54
2024/01/29 09:59:06;;;;;;;8.97;5.10;;;8.50;99.90;;;;;;5053432;28;20888;-54
2024/01/29 10:01:35;;;;;;;10.10;5.40;;;8.90;99.90;;;;;;5054258;28;20442;-53
2024/01/29 10:04:02;;;;;;;10.37;4.80;;;9.50;99.90;;;;;;5054551;28;20442;-54
2024/01/29 10:06:30;;;;;;;8.17;5.53;;;9.70;99.90;;;;;;5054140;28;20525;-54
2024/01/29 10:08:57;;;;;;;11.10;6.13;;;9.90;99.90;;;;;;5060778;28;20466;-54
2024/01/29 10:11:24;;;;;;;7.50;4.80;;;10.20;99.90;;;;;;5054034;28;20450;-54
2024/01/29 10:13:58;;;;;;;12.10;5.63;;;10.40;99.90;;;;;;5053950;28;20442;-54
2024/01/29 10:16:26;;;;;;;7.57;5.00;;;10.90;99.90;;;;;;5054295;28;20622;-54
2024/01/29 10:18:57;;;;;;;8.53;4.93;;;10.40;99.90;;;;;;5072490;28;20492;-53
2024/01/29 10:21:23;;;;;;;8.10;4.53;;;11.90;99.90;;;;;;5055125;28;20448;-54
2024/01/29 10:23:56;;;;;;;7.50;4.27;;;12.30;99.90;;;;;;5062519;28;20446;-55
2024/01/29 10:26:23;;;;;;;6.27;4.80;;;12.20;99.90;;;;;;5068033;28;20524;-54
2024/01/29 10:29:00;;;;;;;7.97;4.90;;;11.00;99.90;;;;;;5056881;28;20515;-54
2024/01/29 10:31:27;;;;;;;8.33;5.00;;;11.00;99.90;;;;;;5047788;28;20978;-53
2024/01/29 10:33:54;;;;;;;6.87;4.90;;;11.00;99.90;;;;;;5053707;28;20499;-54
2024/01/29 10:36:22;;;;;;;10.40;4.87;;;10.00;99.90;;;;;;5053399;28;20512;-53
2024/01/29 10:38:49;;;;;;;5.30;4.33;;;10.30;99.90;;;;;;5068860;28;20494;-53
2024/01/29 10:41:20;;;;;;;9.20;4.93;;;10.00;99.90;;;;;;5055648;28;20465;-53
2024/01/29 10:43:48;;;;;;;4.50;4.10;;;9.80;99.90;;;;;;5053783;28;20449;-54
2024/01/29 10:46:19;;;;;;;5.13;3.80;;;9.60;99.90;;;;;;5066961;28;20433;-54
2024/01/29 10:48:46;;;;;;;5.13;3.90;;;9.40;99.90;;;;;;5053277;28;20473;-53
2024/01/29 10:51:14;;;;;;;6.10;4.13;;;9.40;99.90;;;;;;5065087;28;20441;-53
2024/01/29 10:53:41;;;;;;;11.20;4.30;;;9.30;99.90;;;;;;5059523;28;20446;-53
2024/01/29 10:56:09;;;;;;;4.43;3.60;;;9.70;99.90;;;;;;5061018;28;20493;-53
2024/01/29 10:58:38;;;;;;;5.47;4.40;;;10.00;99.90;;;;;;5053255;28;20466;-54
2024/01/29 11:01:05;;;;;;;5.13;4.17;;;10.20;99.90;;;;;;5067189;28;20616;-54
2024/01/29 11:03:33;;;;;;;6.33;4.20;;;10.90;99.90;;;;;;5062762;28;20468;-53
2024/01/29 11:06:06;;;;;;;6.73;4.10;;;10.90;99.90;;;;;;5051914;28;20494;-53
2024/01/29 11:08:36;;;;;;;5.47;3.87;;;10.50;99.90;;;;;;5053450;28;20457;-53
2024/01/29 11:11:03;;;;;;;6.20;3.67;;;10.20;99.90;;;;;;5052699;28;20446;-53
2024/01/29 11:13:32;;;;;;;5.87;3.50;;;10.90;99.90;;;;;;5052675;28;20919;-55
2024/01/29 11:16:00;;;;;;;5.33;3.90;;;10.50;99.90;;;;;;5053077;28;20548;-54
2024/01/29 11:18:33;;;;;;;6.97;4.27;;;10.20;99.90;;;;;;5052210;28;20462;-53
2024/01/29 11:21:00;;;;;;;5.20;3.77;;;9.80;99.90;;;;;;5049779;28;20448;-54
2024/01/29 11:23:28;;;;;;;4.73;3.90;;;9.80;99.90;;;;;;5052275;28;20508;-54
2024/01/29 11:25:55;;;;;;;9.07;4.63;;;9.70;99.90;;;;;;5052380;28;20442;-53
2024/01/29 11:28:26;;;;;;;5.60;3.80;;;9.40;99.90;;;;;;5053001;28;20474;-53
2024/01/29 11:30:53;;;;;;;6.87;4.27;;;9.50;99.90;;;;;;5065417;28;20449;-53
2024/01/29 11:33:21;;;;;;;7.20;3.97;;;9.50;99.90;;;;;;5061633;28;20524;-54
2024/01/29 11:35:50;;;;;;;8.37;4.00;;;9.80;99.90;;;;;;5060457;28;20482;-54
2024/01/29 11:38:22;;;;;;;8.80;4.60;;;9.70;99.90;;;;;;5052976;28;20860;-54
2024/01/29 11:40:48;;;;;;;5.20;3.70;;;10.10;99.90;;;;;;5053011;28;20438;-53
2024/01/29 11:43:17;;;;;;;5.00;4.37;;;10.00;99.90;;;;;;5046684;28;20450;-53
2024/01/29 11:45:47;;;;;;;6.93;3.67;;;10.10;99.90;;;;;;5054873;28;20496;-54
2024/01/29 11:48:16;;;;;;;5.10;3.60;;;10.10;99.90;;;;;;5053362;28;20564;-57
2024/01/29 11:50:45;;;;;;;4.43;4.03;;;10.00;99.90;;;;;;5051403;28;20438;-54
2024/01/29 11:53:14;;;;;;;8.60;4.20;;;9.80;99.90;;;;;;5053362;28;20443;-55
2024/01/29 11:55:40;;;;;;;10.13;4.57;;;9.70;99.90;;;;;;5066861;28;20480;-54
2024/01/29 11:58:12;;;;;;;6.00;4.13;;;9.60;99.90;;;;;;5052801;28;20997;-54
2024/01/29 12:00:39;;;;;;;5.00;4.00;;;9.50;99.90;;;;;;5053248;28;20503;-54
2024/01/29 12:03:07;;;;;;;10.30;4.73;;;9.50;99.90;;;;;;5040508;23;20487;-52
2024/01/29 12:05:34;;;;;;;5.17;4.10;;;9.50;99.90;;;;;;5011061;28;20437;-52
2024/01/29 12:08:02;;;;;;;5.23;3.27;;;9.50;99.90;;;;;;5017526;28;20483;-52
2024/01/29 12:10:28;;;;;;;5.50;3.90;;;9.60;99.90;;;;;;5020530;28;20455;-51
2024/01/29 12:12:55;;;;;;;11.13;4.87;;;9.60;99.90;;;;;;4998142;28;20542;-52
2024/01/29 12:15:22;;;;;;;6.10;4.50;;;9.60;99.90;;;;;;4991676;28;20437;-51
2024/01/29 12:17:50;;;;;;;5.30;4.37;;;9.60;99.90;;;;;;5001456;28;20445;-51
2024/01/29 12:20:17;;;;;;;5.50;3.63;;;9.60;99.90;;;;;;4991630;28;20476;-51
2024/01/29 12:22:44;;;;;;;7.90;4.53;;;9.80;99.90;;;;;;5004605;28;20478;-51
2024/01/29 12:25:13;;;;;;;4.63;4.23;;;10.30;99.90;;;;;;5000370;28;20518;-51
2024/01/29 12:27:40;;;;;;;4.40;3.40;;;10.30;99.90;;;;;;5000440;28;20437;-52
2024/01/29 12:30:10;;;;;;;4.70;4.30;;;11.00;99.90;;;;;;4997090;28;20535;-52
2024/01/29 12:32:39;;;;;;;7.47;4.53;;;11.80;99.90;;;;;;4995531;28;20460;-51
2024/01/29 12:35:23;;;;;;;7.83;4.53;;;13.20;99.90;;;;;;4995916;28;20992;-52
2024/01/29 12:37:49;;;;;;;7.73;5.10;;;13.50;99.90;;;;;;5003384;28;20779;-51
2024/01/29 12:40:17;;;;;;;7.40;4.40;;;13.80;99.90;;;;;;4997878;28;20443;-51
2024/01/29 12:42:44;;;;;;;7.10;4.50;;;13.80;99.90;;;;;;4995399;28;20515;-51
2024/01/29 12:45:16;;;;;;;4.50;4.10;;;13.80;99.90;;;;;;5003959;28;20889;-51
2024/01/29 12:47:43;;;;;;;4.87;4.07;;;13.80;99.90;;;;;;4995032;28;21053;-52
2024/01/29 12:50:14;;;;;;;16.40;4.97;;;13.40;99.90;;;;;;4994653;28;20499;-51